Cleo, Mississippi
Current Conditions -  °F | °C
As of 3:35 PM on Wednesday 26 Nov 2014 (Local Time) from KPIB Reporting Station
Clear Clear  
Wind Chill: 64°   Ceiling: Unl
Heat Index: 64°   Visibility: 10mi
Dew Point: 34°   Wind: 12mph
Humidity: 32%   Direction: 230°SW
Pressure: 30.12"   Gusts: 17mph
Location:  31.6875°N, 89.1116°W
Report Text: KPIB 262135Z AUTO 23010G15KT 10SM CLR 18/01 A3012 RMK AO1
Loading
Personal Weather Stations






























Interactive Weather Map New forecast layout! Learn more

10-Day Weather Forecast

Advertisements
Track Severe Weather on mobile